Time;durP1;ratioP1;P1;durP2;ratioP2;P2;SDS_P1;SDS_P2;PMS_P1;PMS_P2;Temp;Humidity;BMP_temperature;BMP_pressure;BME280_temperature;BME280_humidity;BME280_pressure;Samples;Min_cycle;Max_cycle;Signal;HPM_P1;HPM_P2
2021/12/02 09:51:19;;;;;;;3.47;1.70;;;4.20;99.90;;;;;;4972517;28;20222;-75
2021/12/02 09:53:53;;;;;;;4.20;1.40;;;4.30;99.90;;;;;;4975277;28;20238;-75
2021/12/02 09:56:23;;;;;;;3.80;1.63;;;4.50;99.90;;;;;;4970251;28;20310;-74
2021/12/02 09:58:52;;;;;;;5.17;1.37;;;4.40;99.90;;;;;;4955012;28;20544;-74
2021/12/02 10:01:22;;;;;;;11.10;1.53;;;4.10;99.90;;;;;;4954485;28;20729;-74
2021/12/02 10:03:53;;;;;;;4.30;1.10;;;4.10;99.90;;;;;;4954851;28;20204;-75
2021/12/02 10:06:28;;;;;;;3.97;1.30;;;4.20;99.90;;;;;;4954787;28;20251;-74
2021/12/02 10:09:00;;;;;;;6.43;1.40;;;4.10;99.90;;;;;;4954740;28;20651;-73
2021/12/02 10:11:29;;;;;;;5.20;1.43;;;4.20;99.90;;;;;;4956262;28;20212;-73
2021/12/02 10:14:00;;;;;;;3.80;1.77;;;4.20;99.90;;;;;;4956146;28;20654;-73
2021/12/02 10:16:29;;;;;;;4.33;1.23;;;4.30;99.90;;;;;;4955824;28;20357;-73
2021/12/02 10:19:02;;;;;;;1.70;0.97;;;4.10;99.90;;;;;;4955956;28;20662;-73
2021/12/02 10:21:37;;;;;;;3.40;1.27;;;4.20;99.90;;;;;;4955970;28;20283;-73
2021/12/02 10:24:07;;;;;;;4.63;1.10;;;4.10;99.90;;;;;;4956053;28;20207;-73
2021/12/02 10:26:40;;;;;;;3.53;1.27;;;4.00;99.90;;;;;;4955609;28;20230;-74
2021/12/02 10:29:16;;;;;;;3.20;0.83;;;4.00;99.90;;;;;;4955759;28;20679;-74
2021/12/02 10:31:47;;;;;;;3.03;1.00;;;4.10;99.90;;;;;;4956195;28;20203;-73
2021/12/02 10:34:16;;;;;;;2.10;0.87;;;4.00;99.90;;;;;;4955982;28;20283;-74
2021/12/02 10:36:46;;;;;;;3.27;1.10;;;4.00;99.90;;;;;;4955564;28;20239;-74
2021/12/02 10:39:16;;;;;;;1.37;0.90;;;3.80;99.90;;;;;;4955516;28;20211;-73
2021/12/02 10:41:45;;;;;;;1.77;0.80;;;3.70;99.90;;;;;;4955607;28;20607;-74
2021/12/02 10:44:19;;;;;;;1.40;0.53;;;3.50;99.90;;;;;;4955618;28;20678;-74
2021/12/02 10:47:01;;;;;;;1.67;0.93;;;3.40;99.90;;;;;;4955543;28;20239;-74
2021/12/02 10:49:29;;;;;;;2.23;1.20;;;3.40;99.90;;;;;;4955383;28;20279;-75
2021/12/02 10:52:01;;;;;;;2.53;0.77;;;3.50;99.90;;;;;;4955422;28;20204;-73
2021/12/02 10:54:32;;;;;;;3.13;0.90;;;3.30;99.90;;;;;;4955514;28;20275;-73
2021/12/02 10:57:01;;;;;;;0.93;0.70;;;3.30;99.90;;;;;;4955458;28;20228;-73
2021/12/02 10:59:39;;;;;;;1.07;0.60;;;3.40;99.90;;;;;;4955429;28;20218;-74
2021/12/02 11:02:09;;;;;;;1.83;0.60;;;3.20;99.90;;;;;;4954937;28;20241;-75
2021/12/02 11:04:39;;;;;;;0.93;0.77;;;3.20;99.90;;;;;;4955072;28;20299;-74
2021/12/02 11:07:13;;;;;;;3.13;1.60;;;3.50;99.90;;;;;;4955096;28;20224;-74
2021/12/02 11:09:41;;;;;;;0.80;0.60;;;3.60;99.90;;;;;;4955326;28;20243;-74
2021/12/02 11:12:16;;;;;;;1.20;0.60;;;3.50;99.90;;;;;;4955158;28;20298;-75
2021/12/02 11:15:02;;;;;;;2.87;0.80;;;3.50;99.90;;;;;;4955303;28;20611;-75
2021/12/02 11:17:31;;;;;;;1.03;0.73;;;3.70;99.90;;;;;;4954971;28;20227;-75
2021/12/02 11:20:01;;;;;;;1.87;0.70;;;3.90;99.90;;;;;;4954938;28;20254;-76
2021/12/02 11:22:30;;;;;;;2.27;1.03;;;4.10;99.90;;;;;;4954906;28;20294;-75
2021/12/02 11:24:58;;;;;;;1.83;0.70;;;4.20;99.90;;;;;;4954832;28;20303;-74
2021/12/02 11:27:27;;;;;;;2.33;1.13;;;4.10;99.90;;;;;;4954455;28;20230;-74
2021/12/02 11:29:57;;;;;;;3.43;1.53;;;4.10;99.90;;;;;;4955159;28;20204;-73
2021/12/02 11:32:30;;;;;;;1.77;1.00;;;4.20;99.90;;;;;;4955137;28;20216;-73
2021/12/02 11:35:12;;;;;;;2.90;1.17;;;4.10;99.90;;;;;;4955098;28;20229;-73
2021/12/02 11:37:42;;;;;;;2.53;1.50;;;4.20;99.90;;;;;;4967824;28;20238;-73
2021/12/02 11:40:13;;;;;;;4.40;1.20;;;4.30;99.90;;;;;;4968417;28;20216;-73
2021/12/02 11:42:41;;;;;;;4.20;1.33;;;4.20;99.90;;;;;;4962714;28;20570;-73
2021/12/02 11:45:11;;;;;;;4.00;1.17;;;4.30;99.90;;;;;;4957618;28;20211;-73
2021/12/02 11:47:39;;;;;;;4.60;1.50;;;4.40;99.90;;;;;;4954685;28;20234;-75
2021/12/02 11:50:08;;;;;;;3.87;1.50;;;4.60;99.90;;;;;;4955279;28;20212;-74
2021/12/02 11:52:36;;;;;;;3.93;1.87;;;4.60;99.90;;;;;;4954347;28;20211;-74
2021/12/02 11:55:08;;;;;;;4.40;1.83;;;4.70;99.90;;;;;;4954688;28;20662;-74
2021/12/02 11:57:35;;;;;;;2.67;1.33;;;4.90;99.90;;;;;;4954221;28;20279;-73
2021/12/02 12:00:04;;;;;;;3.30;1.77;;;5.00;99.90;;;;;;4954755;28;20212;-74
2021/12/02 12:02:31;;;;;;;3.47;1.43;;;4.90;99.90;;;;;;4954581;28;20778;-75
2021/12/02 12:05:01;;;;;;;3.13;1.70;;;4.70;99.90;;;;;;4954561;28;20219;-75
2021/12/02 12:07:40;;;;;;;2.60;1.40;;;4.50;99.90;;;;;;4954393;28;20238;-74
2021/12/02 12:10:25;;;;;;;3.00;1.63;;;4.10;99.90;;;;;;4954590;28;20278;-74
2021/12/02 12:12:53;;;;;;;4.83;1.80;;;4.10;99.90;;;;;;4954228;28;20219;-75
2021/12/02 12:15:34;;;;;;;2.33;1.33;;;3.90;99.90;;;;;;4954632;28;20212;-75
2021/12/02 12:18:02;;;;;;;2.63;1.27;;;4.20;99.90;;;;;;4954287;28;20234;-74
2021/12/02 12:20:52;;;;;;;3.90;1.80;;;4.40;99.90;;;;;;4954258;28;20208;-73
2021/12/02 12:23:33;;;;;;;6.20;1.60;;;4.50;99.90;;;;;;4949826;28;20250;-75
2021/12/02 12:26:31;;;;;;;3.30;1.57;;;4.60;99.90;;;;;;4952288;28;20215;-76
2021/12/02 12:29:29;;;;;;;1.47;1.13;;;4.80;99.90;;;;;;4944184;28;20215;-74
2021/12/02 12:32:37;;;;;;;1.93;0.90;;;5.00;99.90;;;;;;4952236;28;20263;-75
2021/12/02 12:35:10;;;;;;;1.07;0.80;;;5.10;99.90;;;;;;4952810;28;20212;-75
2021/12/02 12:38:00;;;;;;;1.20;0.90;;;5.00;99.90;;;;;;4952446;28;20239;-77
2021/12/02 12:40:31;;;;;;;5.70;0.87;;;4.90;99.90;;;;;;4956377;29;20532;-76
2021/12/02 12:43:22;;;;;;;1.70;0.70;;;4.80;99.90;;;;;;4955876;28;20251;-79
2021/12/02 12:45:49;;;;;;;1.03;0.63;;;4.60;99.90;;;;;;4955710;29;20247;-76
2021/12/02 12:48:28;;;;;;;1.63;0.90;;;4.70;99.90;;;;;;4955344;28;20232;-75
2021/12/02 12:51:09;;;;;;;1.67;0.97;;;4.70;99.90;;;;;;4955288;28;20251;-75
2021/12/02 12:53:38;;;;;;;2.73;1.20;;;4.70;99.90;;;;;;4955381;28;20204;-76
2021/12/02 12:56:08;;;;;;;2.00;1.13;;;4.70;99.90;;;;;;4955746;29;20267;-79
2021/12/02 12:58:39;;;;;;;1.73;1.00;;;4.70;99.90;;;;;;4956062;28;20214;-77
2021/12/02 13:01:18;;;;;;;1.87;1.23;;;4.60;99.90;;;;;;4955202;28;20214;-74
2021/12/02 13:04:02;;;;;;;1.97;1.33;;;4.50;99.90;;;;;;4955776;29;20247;-74
2021/12/02 13:06:32;;;;;;;1.97;0.93;;;4.50;99.90;;;;;;4955442;28;20235;-73
2021/12/02 13:09:02;;;;;;;2.33;1.23;;;4.50;99.90;;;;;;4955051;28;20672;-76
2021/12/02 13:11:31;;;;;;;1.57;0.87;;;4.60;99.90;;;;;;4955586;29;20220;-73
2021/12/02 13:14:01;;;;;;;1.93;1.07;;;4.70;99.90;;;;;;4955208;28;20306;-73
2021/12/02 13:16:36;;;;;;;2.03;0.90;;;4.80;99.90;;;;;;4954783;29;20798;-77
2021/12/02 13:19:12;;;;;;;1.73;0.90;;;4.80;99.90;;;;;;4955410;28;20216;-75
2021/12/02 13:21:40;;;;;;;1.70;1.07;;;5.00;99.90;;;;;;4954623;28;20200;-76
2021/12/02 13:24:08;;;;;;;2.23;1.00;;;5.50;99.90;;;;;;4954375;28;20663;-72
2021/12/02 13:26:37;;;;;;;1.33;0.73;;;5.70;99.90;;;;;;4954805;28;20224;-74
2021/12/02 13:29:08;;;;;;;4.03;1.13;;;5.80;99.90;;;;;;4955229;28;20263;-73
2021/12/02 13:31:37;;;;;;;1.43;0.80;;;5.60;99.90;;;;;;4954802;28;20222;-82
2021/12/02 13:34:05;;;;;;;1.90;0.77;;;5.50;99.90;;;;;;4955666;29;20678;-73
2021/12/02 13:36:45;;;;;;;1.03;0.60;;;5.10;99.90;;;;;;4956042;29;20231;-74
2021/12/02 13:39:15;;;;;;;1.63;0.60;;;4.90;99.90;;;;;;4956323;28;20208;-74
2021/12/02 13:41:46;;;;;;;0.90;0.60;;;4.50;99.90;;;;;;4956289;28;20294;-74
2021/12/02 13:44:17;;;;;;;1.47;0.50;;;4.20;99.90;;;;;;4956457;29;20220;-74
2021/12/02 13:46:47;;;;;;;1.87;0.60;;;4.20;99.90;;;;;;4956106;29;20247;-74
2021/12/02 13:49:20;;;;;;;0.60;0.40;;;4.10;99.90;;;;;;4956083;28;20212;-75
2021/12/02 13:54:35;;;;;;;2.60;0.47;;;4.20;99.90;;;;;;4956322;29;20207;-73
2021/12/02 13:57:22;;;;;;;2.87;0.70;;;4.30;99.90;;;;;;4956176;28;20228;-74
2021/12/02 13:59:51;;;;;;;2.17;0.43;;;4.40;99.90;;;;;;4956583;28;20220;-74
2021/12/02 14:02:20;;;;;;;1.20;0.70;;;4.50;99.90;;;;;;4955797;29;20236;-74
2021/12/02 14:04:49;;;;;;;1.20;0.80;;;4.50;99.90;;;;;;4956111;28;20259;-74
2021/12/02 14:07:19;;;;;;;1.27;0.77;;;4.50;99.90;;;;;;4955727;28;20228;-74
2021/12/02 14:09:55;;;;;;;1.17;0.50;;;4.30;99.90;;;;;;4955916;28;20209;-73
2021/12/02 14:12:25;;;;;;;1.30;0.60;;;4.40;99.90;;;;;;4955821;28;20211;-74
2021/12/02 14:15:10;;;;;;;0.97;0.60;;;4.50;99.90;;;;;;4955870;28;20211;-74
2021/12/02 14:17:52;;;;;;;1.13;0.73;;;4.40;99.90;;;;;;4955655;28;20234;-74
2021/12/02 14:20:23;;;;;;;4.23;0.77;;;4.50;99.90;;;;;;4955607;28;20204;-74
2021/12/02 14:22:52;;;;;;;1.73;0.60;;;4.40;99.90;;;;;;4955026;28;20719;-73
2021/12/02 14:25:20;;;;;;;1.67;0.80;;;4.30;99.90;;;;;;4955463;28;20212;-73
2021/12/02 14:28:02;;;;;;;1.30;0.60;;;4.30;99.90;;;;;;4954986;28;20224;-74
2021/12/02 14:30:37;;;;;;;3.83;1.17;;;4.30;99.90;;;;;;4954975;28;20284;-74
2021/12/02 14:33:06;;;;;;;1.70;0.80;;;4.30;99.90;;;;;;4955571;28;20203;-74
2021/12/02 14:35:43;;;;;;;2.43;1.00;;;4.30;99.90;;;;;;4955269;28;20259;-73
2021/12/02 14:38:20;;;;;;;3.37;0.60;;;4.20;99.90;;;;;;4955403;28;20237;-74
2021/12/02 14:40:48;;;;;;;4.17;0.60;;;4.20;99.90;;;;;;4955135;28;20229;-74
2021/12/02 14:43:17;;;;;;;0.80;0.30;;;4.30;99.90;;;;;;4955023;28;20253;-74
2021/12/02 14:45:45;;;;;;;1.53;0.43;;;4.20;99.90;;;;;;4955212;28;20204;-74
2021/12/02 14:48:27;;;;;;;0.90;0.50;;;4.30;99.90;;;;;;4954605;28;20584;-74
2021/12/02 14:51:07;;;;;;;0.50;0.40;;;4.10;99.90;;;;;;4954747;28;20560;-74
2021/12/02 14:53:37;;;;;;;1.90;0.73;;;4.10;99.90;;;;;;4954857;28;20212;-74
2021/12/02 14:56:27;;;;;;;1.93;0.90;;;4.10;99.90;;;;;;4954649;28;20211;-74
2021/12/02 14:59:17;;;;;;;1.13;0.87;;;4.10;99.90;;;;;;4954953;28;20307;-73
2021/12/02 15:02:07;;;;;;;2.10;0.90;;;4.10;99.90;;;;;;4954175;28;20208;-73
2021/12/02 15:04:37;;;;;;;2.57;0.77;;;4.00;99.90;;;;;;4954507;28;20234;-74
2021/12/02 15:07:11;;;;;;;1.73;0.70;;;4.00;99.90;;;;;;4954528;28;20239;-74
2021/12/02 15:09:44;;;;;;;1.20;0.70;;;4.00;99.90;;;;;;4954450;28;20212;-74
2021/12/02 15:12:13;;;;;;;1.80;0.63;;;4.00;99.90;;;;;;4954424;28;20208;-74
2021/12/02 15:14:42;;;;;;;1.93;0.67;;;4.00;99.90;;;;;;4954375;28;20208;-75
2021/12/02 15:17:12;;;;;;;1.57;0.80;;;4.00;99.90;;;;;;4954839;28;20234;-73
2021/12/02 15:19:42;;;;;;;1.07;0.70;;;4.00;99.90;;;;;;4954640;28;20307;-73
2021/12/02 15:22:34;;;;;;;1.83;0.90;;;4.00;99.90;;;;;;4954707;28;20665;-74
2021/12/02 15:25:21;;;;;;;1.13;0.80;;;4.10;99.90;;;;;;4940392;28;20336;-73
2021/12/02 15:28:07;;;;;;;1.50;0.80;;;4.10;99.90;;;;;;4954253;28;20272;-73
2021/12/02 15:30:36;;;;;;;3.83;1.00;;;4.00;99.90;;;;;;4954001;28;20214;-74
2021/12/02 15:33:06;;;;;;;1.20;0.50;;;4.00;99.90;;;;;;4954210;28;20219;-74
2021/12/02 15:35:33;;;;;;;1.03;0.60;;;4.00;99.90;;;;;;4954309;28;20219;-74
2021/12/02 15:38:03;;;;;;;1.83;0.90;;;3.90;99.90;;;;;;4954473;28;20235;-73
2021/12/02 15:40:30;;;;;;;2.73;1.20;;;3.90;99.90;;;;;;4954650;28;20675;-73
2021/12/02 15:43:01;;;;;;;2.53;1.10;;;3.80;99.90;;;;;;4954089;28;20231;-74
2021/12/02 15:45:28;;;;;;;2.87;1.77;;;3.80;99.90;;;;;;4954388;28;20271;-74
2021/12/02 15:47:54;;;;;;;5.17;1.57;;;3.70;99.90;;;;;;4950168;28;20552;-75
2021/12/02 15:50:23;;;;;;;1.57;1.20;;;3.70;99.90;;;;;;4954165;28;20224;-75
2021/12/02 15:52:51;;;;;;;2.30;1.30;;;3.80;99.90;;;;;;4954266;28;20560;-75
2021/12/02 15:55:19;;;;;;;3.10;1.00;;;3.80;99.90;;;;;;4954426;28;20235;-75
2021/12/02 15:57:46;;;;;;;2.60;0.90;;;3.80;99.90;;;;;;4954015;28;20224;-75
2021/12/02 16:00:19;;;;;;;3.43;1.20;;;3.70;99.90;;;;;;4954039;28;20670;-75
2021/12/02 16:02:50;;;;;;;1.73;0.93;;;3.70;99.90;;;;;;4954406;28;20238;-75
2021/12/02 16:05:27;;;;;;;1.73;1.07;;;3.60;99.90;;;;;;4954220;28;20208;-75
2021/12/02 16:07:58;;;;;;;1.57;0.77;;;3.70;99.90;;;;;;4954157;28;20287;-74
2021/12/02 16:13:15;;;;;;;4.90;1.03;;;3.70;99.90;;;;;;4902611;28;20210;-74
2021/12/02 16:15:41;;;;;;;2.27;1.00;;;4.00;99.90;;;;;;4957884;28;20219;-73
2021/12/02 16:18:08;;;;;;;2.90;0.90;;;3.90;99.90;;;;;;4957383;28;20583;-74
2021/12/02 16:20:35;;;;;;;3.80;1.47;;;3.80;99.90;;;;;;4957874;28;20208;-73
2021/12/02 16:23:03;;;;;;;1.53;1.00;;;3.70;99.90;;;;;;4957818;28;20699;-73
2021/12/02 16:25:30;;;;;;;2.97;1.57;;;3.70;99.90;;;;;;4958264;28;20207;-74
2021/12/02 16:27:57;;;;;;;2.93;1.13;;;3.60;99.90;;;;;;4957266;28;20239;-74
2021/12/02 16:30:26;;;;;;;3.80;1.80;;;3.60;99.90;;;;;;4957448;28;20595;-74
2021/12/02 16:32:54;;;;;;;3.63;1.53;;;3.60;99.90;;;;;;4957562;28;20663;-75
2021/12/02 16:35:21;;;;;;;3.47;1.60;;;3.50;99.90;;;;;;4957780;28;20211;-75
2021/12/02 16:37:47;;;;;;;2.60;1.47;;;3.40;99.90;;;;;;4957402;28;20255;-74
2021/12/02 16:40:19;;;;;;;5.00;1.60;;;3.40;99.90;;;;;;4957835;28;20204;-74
2021/12/02 16:42:51;;;;;;;3.03;1.50;;;3.30;99.90;;;;;;4957563;28;20263;-74
2021/12/02 16:45:20;;;;;;;5.33;1.60;;;3.30;99.90;;;;;;4957408;28;20659;-74
2021/12/02 16:47:47;;;;;;;3.40;1.77;;;3.30;99.90;;;;;;4957056;28;20255;-74
2021/12/02 16:50:16;;;;;;;6.17;2.40;;;3.30;99.90;;;;;;4957389;28;20579;-74
2021/12/02 16:52:43;;;;;;;6.17;1.80;;;3.30;99.90;;;;;;4957401;28;20215;-74
2021/12/02 16:55:11;;;;;;;2.07;1.43;;;3.30;99.90;;;;;;4957546;28;20215;-74
2021/12/02 16:57:40;;;;;;;7.17;2.20;;;3.20;99.90;;;;;;4957146;28;20428;-74
2021/12/02 17:00:10;;;;;;;4.23;1.93;;;3.20;99.90;;;;;;4956173;28;20226;-74
2021/12/02 17:02:37;;;;;;;3.80;2.07;;;3.20;99.90;;;;;;4956440;28;20571;-74
2021/12/02 17:05:05;;;;;;;5.07;2.13;;;3.10;99.90;;;;;;4957271;28;20235;-74
2021/12/02 17:07:32;;;;;;;5.00;2.50;;;3.20;99.90;;;;;;4956744;28;20271;-74
2021/12/02 17:10:01;;;;;;;4.07;2.00;;;3.20;99.90;;;;;;4956258;28;20204;-75
2021/12/02 17:12:28;;;;;;;5.50;2.20;;;3.30;99.90;;;;;;4956433;28;20201;-74
2021/12/02 17:14:56;;;;;;;3.30;1.97;;;3.30;99.90;;;;;;4956486;28;20208;-75
2021/12/02 17:17:23;;;;;;;3.80;2.00;;;3.30;99.90;;;;;;4956118;28;20222;-75
2021/12/02 17:19:50;;;;;;;4.53;2.37;;;3.30;99.90;;;;;;4956469;29;20212;-74
2021/12/02 17:22:22;;;;;;;3.77;2.10;;;3.30;99.90;;;;;;4955997;29;20566;-73
2021/12/02 17:24:48;;;;;;;5.47;2.23;;;3.30;99.90;;;;;;4956026;28;20228;-74
2021/12/02 17:27:17;;;;;;;3.77;2.07;;;3.30;99.90;;;;;;4956258;28;20224;-74
2021/12/02 17:29:44;;;;;;;6.47;2.47;;;3.30;99.90;;;;;;4956312;28;20200;-73
2021/12/02 17:32:13;;;;;;;6.23;2.70;;;3.30;99.90;;;;;;4955845;29;20205;-73
2021/12/02 17:34:42;;;;;;;7.77;3.10;;;3.30;99.90;;;;;;4955851;29;20208;-73
2021/12/02 17:37:10;;;;;;;5.93;2.50;;;3.30;99.90;;;;;;4955168;29;20279;-73
2021/12/02 17:39:40;;;;;;;8.87;3.10;;;3.30;99.90;;;;;;4955497;29;20223;-73
2021/12/02 17:42:09;;;;;;;10.93;4.10;;;3.20;99.90;;;;;;4954966;29;20208;-75
2021/12/02 17:44:36;;;;;;;7.07;4.03;;;3.20;99.90;;;;;;4955063;28;20226;-74
2021/12/02 17:47:07;;;;;;;8.63;3.90;;;3.10;99.90;;;;;;4955442;28;20224;-73
2021/12/02 17:49:35;;;;;;;8.33;3.63;;;3.10;99.90;;;;;;4936540;29;20243;-74
2021/12/02 17:52:02;;;;;;;11.97;3.57;;;3.10;99.90;;;;;;4937098;29;20213;-74
2021/12/02 17:54:29;;;;;;;8.23;3.80;;;3.00;99.90;;;;;;4937044;29;20211;-73
2021/12/02 17:56:55;;;;;;;8.90;3.67;;;3.10;99.90;;;;;;4936486;29;20588;-73
2021/12/02 17:59:22;;;;;;;9.87;5.33;;;3.10;99.90;;;;;;4938588;29;20216;-74
2021/12/02 18:01:50;;;;;;;10.40;4.30;;;3.00;99.90;;;;;;4954588;29;20221;-72
2021/12/02 18:04:17;;;;;;;9.83;3.87;;;3.00;99.90;;;;;;4949751;28;20251;-73
2021/12/02 18:06:46;;;;;;;9.60;4.33;;;3.00;99.90;;;;;;4955149;28;20238;-73
2021/12/02 18:09:12;;;;;;;12.77;4.30;;;3.10;99.90;;;;;;4955525;28;20200;-74
2021/12/02 18:11:39;;;;;;;8.67;3.60;;;3.00;99.90;;;;;;4949885;28;20213;-73
2021/12/02 18:14:06;;;;;;;12.43;3.80;;;3.20;99.90;;;;;;4954499;29;20216;-73
2021/12/02 18:16:33;;;;;;;8.37;4.07;;;3.80;99.90;;;;;;4956021;28;20232;-72
2021/12/02 18:19:00;;;;;;;10.27;3.63;;;4.30;99.90;;;;;;4955416;28;20204;-72
2021/12/02 18:21:27;;;;;;;13.27;4.23;;;4.50;99.90;;;;;;4955736;29;20211;-72
2021/12/02 18:23:55;;;;;;;10.03;3.87;;;4.60;99.90;;;;;;4955376;28;20282;-72
2021/12/02 18:26:22;;;;;;;14.17;5.20;;;4.90;99.90;;;;;;4955966;28;20232;-72
2021/12/02 18:28:49;;;;;;;18.43;5.70;;;4.80;99.90;;;;;;4956270;28;20212;-71
2021/12/02 18:31:17;;;;;;;9.67;4.67;;;4.70;99.90;;;;;;4955838;28;20212;-73
2021/12/02 18:33:45;;;;;;;12.90;4.83;;;4.40;99.90;;;;;;4954267;28;20572;-72
2021/12/02 18:36:14;;;;;;;10.70;4.40;;;4.30;99.90;;;;;;4953103;28;20204;-72
2021/12/02 18:38:41;;;;;;;10.30;3.70;;;4.20;99.90;;;;;;4953081;29;20667;-71
2021/12/02 18:41:10;;;;;;;10.93;4.37;;;3.90;99.90;;;;;;4953099;28;20211;-72
2021/12/02 18:43:36;;;;;;;11.97;3.53;;;3.80;99.90;;;;;;4953705;28;20234;-70
2021/12/02 18:46:06;;;;;;;8.70;3.40;;;3.80;99.90;;;;;;4953805;28;20211;-70
2021/12/02 18:48:34;;;;;;;12.33;4.63;;;3.70;99.90;;;;;;4954066;29;20204;-71
2021/12/02 18:51:02;;;;;;;9.77;3.10;;;3.70;99.90;;;;;;4954992;28;20556;-70
2021/12/02 18:53:29;;;;;;;12.30;3.13;;;3.70;99.90;;;;;;4954768;29;20219;-71
2021/12/02 18:55:58;;;;;;;11.60;4.03;;;3.80;99.90;;;;;;4954776;28;20536;-71
2021/12/02 18:58:27;;;;;;;12.13;2.97;;;3.80;99.90;;;;;;4954794;28;20240;-70
2021/12/02 19:00:55;;;;;;;7.93;2.93;;;3.80;99.90;;;;;;4954529;28;20208;-70
2021/12/02 19:03:23;;;;;;;6.87;3.00;;;3.70;99.90;;;;;;4954352;28;20663;-71
2021/12/02 19:05:57;;;;;;;7.73;2.67;;;3.60;99.90;;;;;;4955123;28;20607;-70
2021/12/02 19:08:43;;;;;;;9.00;3.53;;;3.60;99.90;;;;;;4954424;28;20266;-71
2021/12/02 19:27:37;;;;;;;9.23;3.67;;;3.60;99.90;;;;;;4941509;29;20234;-74
2021/12/02 19:30:07;;;;;;;11.77;4.37;;;3.60;99.90;;;;;;4945232;28;20227;-83
2021/12/02 19:32:35;;;;;;;10.30;3.77;;;3.50;99.90;;;;;;4947730;28;20559;-80
2021/12/02 19:35:03;;;;;;;9.17;4.20;;;3.50;99.90;;;;;;4947106;28;20213;-72
2021/12/02 19:37:30;;;;;;;12.73;4.27;;;3.40;99.90;;;;;;4943097;28;20307;-72
2021/12/02 19:39:56;;;;;;;10.50;4.80;;;3.40;99.90;;;;;;4950477;28;20210;-76
2021/12/02 19:42:23;;;;;;;9.17;4.73;;;3.30;99.90;;;;;;4952942;28;20200;-74
2021/12/02 19:44:50;;;;;;;9.90;4.10;;;3.30;99.90;;;;;;4954067;28;20239;-74
2021/12/02 19:47:20;;;;;;;6.13;3.20;;;3.30;99.90;;;;;;4948797;28;20212;-73
2021/12/02 19:49:48;;;;;;;10.70;2.70;;;3.30;99.90;;;;;;4956271;29;20207;-76
2021/12/02 19:52:15;;;;;;;5.50;2.37;;;3.30;99.90;;;;;;4957431;28;20208;-73
2021/12/02 19:54:44;;;;;;;6.63;2.60;;;3.40;99.90;;;;;;4952132;28;20208;-73
2021/12/02 19:57:11;;;;;;;7.23;2.83;;;3.50;99.90;;;;;;4942252;28;20264;-74
2021/12/02 19:59:38;;;;;;;5.60;2.73;;;3.50;99.90;;;;;;4939986;29;20203;-74
2021/12/02 20:02:05;;;;;;;4.57;2.50;;;3.50;99.90;;;;;;4955719;29;20207;-75
2021/12/02 20:04:34;;;;;;;5.27;2.30;;;3.50;99.90;;;;;;4955710;29;20238;-74
2021/12/02 20:07:02;;;;;;;5.07;2.40;;;3.30;99.90;;;;;;4954867;29;20230;-74
2021/12/02 20:09:29;;;;;;;6.60;2.23;;;3.30;99.90;;;;;;4956791;28;20200;-74
2021/12/02 20:11:55;;;;;;;4.57;1.83;;;3.40;99.90;;;;;;4958002;28;20219;-74
2021/12/02 20:14:25;;;;;;;11.20;2.30;;;3.30;99.90;;;;;;4948607;28;20200;-74
2021/12/02 20:16:57;;;;;;;2.87;1.53;;;3.20;99.90;;;;;;4954898;28;20635;-75
2021/12/02 20:19:31;;;;;;;4.50;1.70;;;3.20;99.90;;;;;;4957533;29;20208;-75
2021/12/02 20:22:02;;;;;;;3.17;1.43;;;3.30;99.90;;;;;;4940296;29;20200;-75
2021/12/02 20:24:29;;;;;;;4.27;1.50;;;3.30;99.90;;;;;;4954520;29;20239;-75
2021/12/02 20:26:56;;;;;;;5.60;1.90;;;3.40;99.90;;;;;;4956307;28;20749;-75
2021/12/02 20:29:24;;;;;;;3.17;1.60;;;3.50;99.90;;;;;;4957205;28;20204;-75
2021/12/02 20:31:52;;;;;;;3.87;1.60;;;3.50;99.90;;;;;;4957207;28;20251;-74
2021/12/02 20:34:20;;;;;;;6.83;1.87;;;3.50;99.90;;;;;;4953424;28;20668;-75
2021/12/02 20:36:48;;;;;;;8.00;2.03;;;3.50;99.90;;;;;;4957154;28;20706;-76
2021/12/02 20:39:17;;;;;;;5.53;2.77;;;3.50;99.90;;;;;;4952093;28;20648;-75
2021/12/02 20:41:47;;;;;;;5.50;2.37;;;3.70;99.90;;;;;;4937653;29;20213;-75
2021/12/02 20:44:14;;;;;;;8.07;2.40;;;3.80;99.90;;;;;;4937757;29;20308;-74
2021/12/02 20:46:52;;;;;;;5.90;2.60;;;3.80;99.90;;;;;;4937757;29;20311;-74
2021/12/02 20:49:37;;;;;;;8.13;2.27;;;3.70;99.90;;;;;;4946414;29;20208;-74
2021/12/02 20:52:05;;;;;;;9.07;2.57;;;3.70;99.90;;;;;;4954874;28;20576;-74
2021/12/02 20:54:34;;;;;;;4.67;2.03;;;3.80;99.90;;;;;;4949477;29;20212;-74
2021/12/02 20:57:01;;;;;;;4.57;2.13;;;3.90;99.90;;;;;;4956770;28;20711;-74
2021/12/02 20:59:28;;;;;;;7.33;2.47;;;4.10;99.90;;;;;;4953865;28;20211;-74
2021/12/02 21:01:55;;;;;;;4.80;2.53;;;4.10;99.90;;;;;;4937815;29;20209;-75
2021/12/02 21:04:21;;;;;;;3.03;1.90;;;4.10;99.90;;;;;;4955455;29;20228;-75
2021/12/02 21:06:48;;;;;;;3.27;1.90;;;4.10;99.90;;;;;;4956317;28;20539;-75
2021/12/02 21:09:15;;;;;;;5.60;2.00;;;4.10;99.90;;;;;;4956072;28;20235;-75
2021/12/02 21:11:43;;;;;;;4.10;2.07;;;4.10;99.90;;;;;;4945071;28;20209;-75
2021/12/02 21:14:11;;;;;;;8.67;2.77;;;4.10;99.90;;;;;;4956695;28;20675;-75
2021/12/02 21:16:40;;;;;;;7.70;2.37;;;4.00;99.90;;;;;;4947096;28;20224;-75
2021/12/02 21:19:10;;;;;;;5.23;1.70;;;4.00;99.90;;;;;;4938084;29;20216;-75
2021/12/02 21:21:37;;;;;;;4.93;2.03;;;4.00;99.90;;;;;;4937481;29;20209;-77
2021/12/02 21:24:04;;;;;;;5.73;1.87;;;4.00;99.90;;;;;;4937043;29;20219;-75
2021/12/02 21:26:31;;;;;;;5.63;2.37;;;4.00;99.90;;;;;;4936984;29;20236;-75
2021/12/02 21:28:59;;;;;;;3.83;2.07;;;4.10;99.90;;;;;;4947646;29;20667;-77
2021/12/02 21:31:26;;;;;;;7.80;1.97;;;4.20;99.90;;;;;;4955514;28;20663;-78
2021/12/02 21:33:53;;;;;;;4.47;1.80;;;4.10;99.90;;;;;;4956007;28;20204;-76
2021/12/02 21:36:28;;;;;;;6.00;2.40;;;4.20;99.90;;;;;;4955608;28;20236;-74
2021/12/02 21:38:58;;;;;;;8.57;2.50;;;4.20;99.90;;;;;;4956273;28;20208;-75
2021/12/02 21:41:25;;;;;;;3.93;2.10;;;4.20;99.90;;;;;;4955958;28;20215;-75
2021/12/02 21:43:54;;;;;;;4.07;1.53;;;4.10;99.90;;;;;;4955774;28;20234;-77
2021/12/02 21:46:25;;;;;;;6.00;2.20;;;4.00;99.90;;;;;;4955726;28;20247;-75
2021/12/02 21:48:53;;;;;;;2.57;1.90;;;3.90;99.90;;;;;;4948015;28;20213;-75
2021/12/02 21:51:19;;;;;;;4.47;2.23;;;3.90;99.90;;;;;;4936371;29;20573;-74
2021/12/02 21:53:46;;;;;;;2.27;1.80;;;3.90;99.90;;;;;;4943013;29;20212;-75
2021/12/02 21:56:13;;;;;;;4.60;1.87;;;3.90;99.90;;;;;;4955880;28;20299;-75
2021/12/02 21:58:41;;;;;;;4.83;1.97;;;3.90;99.90;;;;;;4956014;28;20208;-74
2021/12/02 22:01:12;;;;;;;3.50;2.13;;;3.80;99.90;;;;;;4955802;28;20212;-75
2021/12/02 22:03:41;;;;;;;3.57;2.23;;;3.80;99.90;;;;;;4955856;28;20247;-75
2021/12/02 22:06:08;;;;;;;4.40;1.73;;;3.90;99.90;;;;;;4955600;28;20239;-76
2021/12/02 22:08:37;;;;;;;5.27;2.07;;;3.70;99.90;;;;;;4955280;28;20218;-74
2021/12/02 22:11:04;;;;;;;3.77;1.70;;;3.70;99.90;;;;;;4955303;28;20223;-76
2021/12/02 22:13:31;;;;;;;8.93;2.50;;;3.70;99.90;;;;;;4954768;28;20204;-74
2021/12/02 22:15:59;;;;;;;3.57;1.80;;;3.70;99.90;;;;;;4955424;28;20218;-74
2021/12/02 22:18:26;;;;;;;2.53;1.77;;;3.60;99.90;;;;;;4955562;28;20244;-74
2021/12/02 22:20:56;;;;;;;7.57;2.53;;;3.50;99.90;;;;;;4955351;28;20219;-75
2021/12/02 22:23:23;;;;;;;2.90;2.17;;;3.40;99.90;;;;;;4955093;28;20214;-74
2021/12/02 22:25:50;;;;;;;4.23;2.40;;;3.40;99.90;;;;;;4954962;28;20235;-75
2021/12/02 22:28:16;;;;;;;3.97;2.40;;;3.40;99.90;;;;;;4951426;28;20234;-74
